Terminal Aerodrome Forecast
Issued by NWS

Home | Current Version | Previous Version | Text Only | Print | Product List | Glossary On
Versions: 1 2 3 4 5 6 7 8 9 10 11 12 13 14
000
FTUS46 KLOX 192228 AAB
TAFWJF
TAF AMD
KWJF 192228Z 1922/2018 26015G25KT P6SM BKN035 BKN050
     FM200000 27022G32KT P6SM BKN100
     FM200600 27018G28KT P6SM SCT120=

USA.gov is the U.S. government's official web portal to all federal, state and local government web resources and services.